Time;durP1;ratioP1;P1;durP2;ratioP2;P2;SDS_P1;SDS_P2;PMS_P1;PMS_P2;Temp;Humidity;BMP_temperature;BMP_pressure;BME280_temperature;BME280_humidity;BME280_pressure;Samples;Min_cycle;Max_cycle;Signal;HPM_P1;HPM_P2
2022/03/22 00:01:32;274410.00;0.91;473.93;0.00;0.00;0.62;;;;;13.30;1.00;;;;;;2259885;61;1998;-88
2022/03/22 00:04:02;137281.00;0.46;237.88;0.00;0.00;0.62;;;;;13.40;1.00;;;;;;2260021;61;1489;-86
2022/03/22 00:06:29;353213.00;1.18;609.38;0.00;0.00;0.62;;;;;13.50;1.00;;;;;;2259972;61;1410;-87
2022/03/22 00:08:57;348874.00;1.16;601.93;0.00;0.00;0.62;;;;;13.50;1.00;;;;;;2260104;61;1140;-87
2022/03/22 00:11:24;289713.00;0.97;500.24;0.00;0.00;0.62;;;;;12.50;1.00;;;;;;2286542;41;3590;-87
2022/03/22 00:13:51;347981.00;1.16;600.39;0.00;0.00;0.62;;;;;11.60;1.00;;;;;;2264072;61;1031;-87
2022/03/22 00:16:18;308904.00;1.03;533.23;0.00;0.00;0.62;;;;;10.90;1.00;;;;;;2264064;61;1290;-85
2022/03/22 00:18:47;450443.00;1.50;776.54;28464.00;0.09;49.92;;;;;11.20;1.00;;;;;;2264019;61;1443;-86
2022/03/22 00:21:17;696857.00;2.32;1201.79;0.00;0.00;0.62;;;;;11.10;1.00;;;;;;2264182;61;1998;-86
2022/03/22 00:23:45;533974.00;1.78;920.34;51456.00;0.17;89.70;;;;;11.20;1.00;;;;;;2264029;61;1057;-86
2022/03/22 00:26:12;1224041.00;4.08;2133.75;46428.00;0.15;81.01;;;;;11.90;1.00;;;;;;2264164;61;1341;-87
2022/03/22 00:28:39;1078248.00;3.59;1871.57;90234.00;0.30;156.71;;;;;12.20;1.00;;;;;;2264055;61;877;-87
2022/03/22 00:31:07;500078.00;1.67;861.96;91138.00;0.30;158.27;;;;;12.30;1.00;;;;;;2263999;61;1199;-87
2022/03/22 00:33:35;362035.00;1.21;624.55;89391.00;0.30;155.26;;;;;12.30;1.00;;;;;;2264050;61;1104;-89
2022/03/22 00:36:02;341009.00;1.14;588.41;0.00;0.00;0.62;;;;;12.50;1.00;;;;;;2264004;61;1785;-87
2022/03/22 00:38:31;490361.00;1.63;845.23;0.00;0.00;0.62;;;;;12.40;1.00;;;;;;2264039;61;1026;-88
2022/03/22 00:40:58;73101.00;0.24;127.12;0.00;0.00;0.62;;;;;12.40;1.00;;;;;;2264066;61;1927;-89
2022/03/22 00:43:25;635693.00;2.12;1095.89;42367.00;0.14;73.98;;;;;12.30;1.00;;;;;;2264104;61;1307;-86
2022/03/22 00:45:52;389603.00;1.30;671.93;0.00;0.00;0.62;;;;;12.00;1.00;;;;;;2263969;61;1527;-87
2022/03/22 00:48:20;172649.00;0.58;298.83;0.00;0.00;0.62;;;;;11.90;1.00;;;;;;2264098;61;975;-86
2022/03/22 00:50:48;315057.00;1.05;543.80;0.00;0.00;0.62;;;;;12.40;1.00;;;;;;2263884;61;1766;-85
2022/03/22 00:53:18;457919.00;1.53;789.40;44811.00;0.15;78.21;;;;;12.70;1.00;;;;;;2263964;61;1171;-87
2022/03/22 00:55:47;1351413.00;4.50;2366.51;76377.00;0.25;132.78;;;;;12.50;1.00;;;;;;2264010;61;1294;-88
2022/03/22 00:58:15;1370164.00;4.57;2401.10;95650.00;0.32;166.06;;;;;12.40;1.00;;;;;;2264027;61;1272;-87
2022/03/22 01:00:43;1091464.00;3.64;1895.17;41443.00;0.14;72.38;;;;;12.60;1.00;;;;;;2295351;40;3760;-88
2022/03/22 01:03:10;1207606.00;4.03;2103.98;68644.00;0.23;119.42;;;;;13.00;1.00;;;;;;2263968;61;2066;-88
2022/03/22 01:05:38;1043236.00;3.48;1809.20;53390.00;0.18;93.05;;;;;12.90;1.00;;;;;;2264034;61;1379;-88
2022/03/22 01:08:07;1988045.00;6.63;3599.81;85339.00;0.28;148.26;;;;;13.10;1.00;;;;;;2263861;61;1630;-88
2022/03/22 01:10:36;2002317.00;6.67;3629.08;143394.00;0.48;248.42;;;;;12.60;1.00;;;;;;2263792;61;1449;-88
2022/03/22 01:13:06;1139708.00;3.80;1981.58;139568.00;0.47;241.83;;;;;12.10;1.00;;;;;;2264479;61;1047;-86
2022/03/22 01:15:34;655618.00;2.19;1130.36;89593.00;0.30;155.60;;;;;11.50;1.00;;;;;;2264573;61;1505;-86
2022/03/22 01:18:05;680716.00;2.27;1173.81;101438.00;0.34;176.05;;;;;11.10;1.00;;;;;;2264663;61;1161;-88
2022/03/22 01:20:33;896918.00;2.99;1550.71;94707.00;0.32;164.43;;;;;11.40;1.00;;;;;;2264786;61;1254;-85
2022/03/22 01:23:02;651235.00;2.17;1122.77;92674.00;0.31;160.92;;;;;11.00;1.00;;;;;;2264510;61;1936;-87
2022/03/22 01:25:32;715665.00;2.39;1234.41;87833.00;0.29;152.57;;;;;11.00;1.00;;;;;;2264602;61;2177;-87
2022/03/22 01:27:59;790531.00;2.64;1364.61;136535.00;0.46;236.60;;;;;10.80;1.00;;;;;;2264644;61;978;-87
2022/03/22 01:30:29;831305.00;2.77;1435.78;128790.00;0.43;223.24;;;;;10.80;1.00;;;;;;2264652;61;1016;-87
2022/03/22 01:32:57;322368.00;1.07;556.37;98933.00;0.33;171.73;;;;;11.20;1.00;;;;;;2264640;61;1334;-87
2022/03/22 01:35:26;536151.00;1.79;924.09;103915.00;0.35;180.33;;;;;11.50;1.00;;;;;;2264422;61;1272;-86
2022/03/22 01:37:56;640972.00;2.14;1105.02;122946.00;0.41;213.16;;;;;11.90;1.00;;;;;;2264410;61;1047;-88
2022/03/22 01:42:54;871979.00;2.91;1506.96;0.00;0.00;0.62;;;;;12.60;1.00;;;;;;2262192;61;1894;-86
2022/03/22 01:45:21;505285.00;1.68;870.92;0.00;0.00;0.62;;;;;12.60;1.00;;;;;;2271414;41;3606;-86
2022/03/22 01:47:52;173948.00;0.58;301.07;0.00;0.00;0.62;;;;;12.70;1.00;;;;;;2264557;61;1196;-87
2022/03/22 01:50:22;112955.00;0.38;195.93;0.00;0.00;0.62;;;;;12.90;1.00;;;;;;2264610;61;1596;-88
2022/03/22 01:52:49;182811.00;0.61;316.33;0.00;0.00;0.62;;;;;13.00;1.00;;;;;;2264491;61;1567;-86
2022/03/22 01:55:18;208665.00;0.70;360.84;0.00;0.00;0.62;;;;;12.90;1.00;;;;;;2264415;61;1718;-86
2022/03/22 01:57:46;269067.00;0.90;464.74;0.00;0.00;0.62;;;;;12.90;1.00;;;;;;2264642;61;942;-87
2022/03/22 02:00:15;326493.00;1.09;563.46;0.00;0.00;0.62;;;;;12.50;1.00;;;;;;2289409;56;3705;-88
2022/03/22 02:08:16;257439.00;0.86;444.74;0.00;0.00;0.62;;;;;12.20;1.00;;;;;;2264492;61;747;-87
2022/03/22 02:10:43;119435.00;0.40;207.11;0.00;0.00;0.62;;;;;12.60;1.00;;;;;;2264547;61;885;-87
2022/03/22 02:13:10;388544.00;1.30;670.11;0.00;0.00;0.62;;;;;12.70;1.00;;;;;;2264495;61;937;-87
2022/03/22 02:15:37;219634.00;0.73;379.71;0.00;0.00;0.62;;;;;12.40;1.00;;;;;;2264446;61;1270;-87
2022/03/22 02:18:05;150541.00;0.50;260.74;0.00;0.00;0.62;;;;;12.60;1.00;;;;;;2264546;61;1117;-87
2022/03/22 02:20:33;263638.00;0.88;455.40;0.00;0.00;0.62;;;;;12.60;1.00;;;;;;2264503;61;1012;-86
2022/03/22 02:23:06;220191.00;0.73;380.67;0.00;0.00;0.62;;;;;12.40;1.00;;;;;;2264413;61;1994;-87
2022/03/22 02:25:35;241454.00;0.80;417.25;0.00;0.00;0.62;;;;;12.10;1.00;;;;;;2264375;61;1537;-87
2022/03/22 02:28:04;242846.00;0.81;419.65;0.00;0.00;0.62;;;;;11.40;1.00;;;;;;2264458;61;1172;-87
2022/03/22 02:30:31;151603.00;0.51;262.57;0.00;0.00;0.62;;;;;11.00;1.00;;;;;;2264427;61;1040;-85
2022/03/22 02:33:01;308612.00;1.03;532.72;0.00;0.00;0.62;;;;;11.00;1.00;;;;;;2264368;61;1083;-85
2022/03/22 02:35:29;145141.00;0.48;251.43;0.00;0.00;0.62;;;;;11.00;1.00;;;;;;2264366;61;1438;-86
2022/03/22 02:37:58;159493.00;0.53;276.17;0.00;0.00;0.62;;;;;10.80;1.00;;;;;;2264518;61;984;-86
2022/03/22 02:40:27;305873.00;1.02;528.02;0.00;0.00;0.62;;;;;10.30;1.00;;;;;;2264392;61;1569;-87
2022/03/22 02:43:00;240651.00;0.80;415.87;0.00;0.00;0.62;;;;;10.00;1.00;;;;;;2264390;61;1919;-87
2022/03/22 02:45:27;461168.00;1.54;794.99;0.00;0.00;0.62;;;;;10.00;1.00;;;;;;2264292;61;1589;-86
2022/03/22 02:47:54;483108.00;1.61;832.75;13349.00;0.04;23.75;;;;;10.60;1.00;;;;;;2264446;61;1122;-85
2022/03/22 02:50:21;304527.00;1.02;525.70;0.00;0.00;0.62;;;;;11.10;1.00;;;;;;2264321;61;1134;-86
2022/03/22 02:52:49;243442.00;0.81;420.67;0.00;0.00;0.62;;;;;11.60;1.00;;;;;;2264389;61;1015;-85
2022/03/22 02:55:16;278239.00;0.93;480.51;15460.00;0.05;27.41;;;;;11.40;1.00;;;;;;2264099;61;1330;-86
2022/03/22 02:57:43;180307.00;0.60;312.02;0.00;0.00;0.62;;;;;11.60;1.00;;;;;;2264274;61;1619;-86
2022/03/22 03:00:14;305790.00;1.02;527.87;37504.00;0.13;65.57;;;;;11.60;1.00;;;;;;2264406;61;1017;-86
2022/03/22 03:02:44;320234.00;1.07;552.70;19951.00;0.07;35.19;;;;;11.50;1.00;;;;;;2264332;61;2022;-86
2022/03/22 03:05:12;98216.00;0.33;170.49;0.00;0.00;0.62;;;;;11.50;1.00;;;;;;2264274;61;1661;-88
2022/03/22 03:07:39;215988.00;0.72;373.44;0.00;0.00;0.62;;;;;11.50;1.00;;;;;;2264504;61;940;-87
2022/03/22 03:10:07;117195.00;0.39;203.24;0.00;0.00;0.62;;;;;11.90;1.00;;;;;;2264422;61;1017;-87
2022/03/22 03:12:35;111987.00;0.37;194.26;0.00;0.00;0.62;;;;;11.90;1.00;;;;;;2264342;61;925;-88
2022/03/22 03:15:03;183557.00;0.61;317.61;0.00;0.00;0.62;;;;;11.80;1.00;;;;;;2264395;61;1319;-88
2022/03/22 03:17:33;223585.00;0.75;386.51;0.00;0.00;0.62;;;;;11.80;1.00;;;;;;2264115;61;930;-87
2022/03/22 03:20:00;165475.00;0.55;286.47;0.00;0.00;0.62;;;;;11.90;1.00;;;;;;2264219;61;1645;-87
2022/03/22 03:22:27;221339.00;0.74;382.65;0.00;0.00;0.62;;;;;11.60;1.00;;;;;;2264391;61;1994;-86
2022/03/22 03:24:54;339272.00;1.13;585.42;0.00;0.00;0.62;;;;;11.40;1.00;;;;;;2264177;61;1486;-85
2022/03/22 03:27:22;168789.00;0.56;292.18;0.00;0.00;0.62;;;;;10.90;1.00;;;;;;2264251;61;1244;-85
2022/03/22 03:29:49;260414.00;0.87;449.86;0.00;0.00;0.62;;;;;11.00;1.00;;;;;;2263919;61;1130;-86
2022/03/22 03:32:16;242061.00;0.81;418.30;0.00;0.00;0.62;;;;;11.20;1.00;;;;;;2264192;61;1441;-84
2022/03/22 03:34:45;264247.00;0.88;456.45;0.00;0.00;0.62;;;;;11.60;1.00;;;;;;2264302;61;1024;-86
2022/03/22 03:37:12;227756.00;0.76;393.69;7336.00;0.02;13.33;;;;;11.90;1.00;;;;;;2264001;61;1270;-86
2022/03/22 03:39:40;260393.00;0.87;449.82;0.00;0.00;0.62;;;;;12.10;1.00;;;;;;2264358;61;1132;-85
2022/03/22 03:42:07;155828.00;0.52;269.85;0.00;0.00;0.62;;;;;12.00;1.00;;;;;;2264069;61;2000;-85
2022/03/22 03:47:22;190809.00;0.64;330.10;0.00;0.00;0.62;;;;;11.90;1.00;;;;;;2264203;61;673;-85
2022/03/22 03:49:53;228700.00;0.76;395.31;0.00;0.00;0.62;;;;;11.60;1.00;;;;;;2264141;61;1600;-84
2022/03/22 03:52:21;204295.00;0.68;353.32;0.00;0.00;0.62;;;;;11.50;1.00;;;;;;2264105;61;1100;-85
2022/03/22 03:54:49;162339.00;0.54;281.07;0.00;0.00;0.62;;;;;11.20;1.00;;;;;;2264230;61;1378;-85
2022/03/22 03:57:16;750123.00;2.50;1294.27;10302.00;0.03;18.47;;;;;11.40;1.00;;;;;;2270808;56;3739;-83
2022/03/22 03:59:43;208440.00;0.69;360.45;0.00;0.00;0.62;;;;;11.10;1.00;;;;;;2264045;61;1060;-86
2022/03/22 04:02:11;194158.00;0.65;335.87;0.00;0.00;0.62;;;;;10.20;1.00;;;;;;2264125;61;1988;-84
2022/03/22 04:04:40;491798.00;1.64;847.70;20815.00;0.07;36.68;;;;;9.80;1.00;;;;;;2264164;61;1051;-85
2022/03/22 04:07:10;1212596.00;4.04;2113.01;116555.00;0.39;202.14;;;;;9.20;1.00;;;;;;2264155;61;1589;-87
2022/03/22 04:09:39;1558373.00;5.19;2753.45;225923.00;0.75;390.53;;;;;8.50;1.00;;;;;;2264165;61;905;-86
2022/03/22 04:12:07;1203775.00;4.01;2097.05;66167.00;0.22;115.14;;;;;8.80;1.00;;;;;;2264080;61;1200;-87
2022/03/22 04:14:35;1182989.00;3.94;2059.49;124329.00;0.41;215.55;;;;;9.40;1.00;;;;;;2264122;61;984;-87
2022/03/22 04:17:02;2050158.00;6.83;3727.83;249061.00;0.83;430.34;;;;;9.50;1.00;;;;;;2264150;61;1387;-84
2022/03/22 04:19:29;1638855.00;5.46;2907.23;205167.00;0.68;354.82;;;;;9.30;1.00;;;;;;2264102;61;1566;-85
2022/03/22 04:21:56;2201094.00;7.34;4045.75;71233.00;0.24;123.89;;;;;9.50;1.00;;;;;;2264068;61;984;-84
2022/03/22 04:24:25;1961829.00;6.54;3546.24;214646.00;0.72;371.13;;;;;9.80;1.00;;;;;;2264153;61;1989;-88
2022/03/22 04:26:52;1520752.00;5.07;2682.23;205893.00;0.69;356.07;;;;;9.80;1.00;;;;;;2264063;61;1431;-87
2022/03/22 04:34:50;1490134.00;4.97;2624.57;162128.00;0.54;280.71;;;;;9.00;1.00;;;;;;2264189;61;1337;-86
2022/03/22 04:37:18;1584051.00;5.28;2802.30;284744.00;0.95;491.69;;;;;8.50;1.00;;;;;;2264046;61;1596;-85
2022/03/22 04:39:47;1050401.00;3.50;1821.95;153739.00;0.51;266.25;;;;;8.40;1.00;;;;;;2264054;61;1625;-86
2022/03/22 04:42:15;1625264.00;5.42;2881.12;354118.00;1.18;610.94;;;;;8.50;1.00;;;;;;2264164;61;1918;-86
2022/03/22 04:44:43;118494744.00;394.98;67396400.00;94548.00;0.32;164.16;;;;;8.80;1.00;;;;;;2264006;61;1094;-87
2022/03/22 04:47:10;709682.00;2.37;1224.03;136347.00;0.45;236.27;;;;;8.60;1.00;;;;;;2263973;61;1185;-88
2022/03/22 04:49:37;601170.00;2.00;1036.24;91552.00;0.31;158.99;;;;;8.10;1.00;;;;;;2264194;61;1038;-86
2022/03/22 04:57:35;1117014.00;3.72;1940.88;160536.00;0.54;277.96;;;;;7.30;1.00;;;;;;2264246;61;663;-89
2022/03/22 05:00:02;578338.00;1.93;996.83;106355.00;0.35;184.54;;;;;7.50;1.00;;;;;;2263956;61;1159;-86
2022/03/22 05:02:29;619586.00;2.07;1068.05;126187.00;0.42;218.75;;;;;7.40;1.00;;;;;;2263961;61;1913;-86
2022/03/22 05:04:56;552837.00;1.84;952.85;104039.00;0.35;180.54;;;;;7.50;1.00;;;;;;2264001;61;1525;-85
2022/03/22 05:07:23;394675.00;1.32;680.65;83176.00;0.28;144.52;;;;;7.50;1.00;;;;;;2263934;61;1088;-87
2022/03/22 05:09:51;433877.00;1.45;748.05;0.00;0.00;0.62;;;;;7.60;1.00;;;;;;2263977;61;1265;-88
2022/03/22 05:12:18;362425.00;1.21;625.22;21652.00;0.07;38.13;;;;;7.60;1.00;;;;;;2263934;61;1096;-87
2022/03/22 05:14:50;356759.00;1.19;615.48;0.00;0.00;0.62;;;;;7.70;1.00;;;;;;2264044;61;1084;-87
2022/03/22 05:17:21;400164.00;1.33;690.09;0.00;0.00;0.62;;;;;7.90;1.00;;;;;;2263951;61;1056;-88
2022/03/22 05:19:49;139792.00;0.47;242.21;0.00;0.00;0.62;;;;;8.00;1.00;;;;;;2263916;61;1144;-85
2022/03/22 05:22:16;351479.00;1.17;606.40;10095.00;0.03;18.11;;;;;8.30;1.00;;;;;;2263757;61;2006;-86
2022/03/22 05:24:43;202229.00;0.67;349.76;0.00;0.00;0.62;;;;;8.10;1.00;;;;;;2263972;61;1636;-86
2022/03/22 05:27:12;366832.00;1.22;632.79;11042.00;0.04;19.75;;;;;8.30;1.00;;;;;;2263735;61;1211;-87
2022/03/22 05:29:39;264590.00;0.88;457.04;0.00;0.00;0.62;;;;;8.40;1.00;;;;;;2263982;61;1627;-86
2022/03/22 05:32:07;153400.00;0.51;265.67;0.00;0.00;0.62;;;;;8.40;1.00;;;;;;2263920;61;1016;-84
2022/03/22 05:34:33;123167.00;0.41;213.55;0.00;0.00;0.62;;;;;8.80;1.00;;;;;;2263888;61;2152;-85
2022/03/22 05:37:00;273675.00;0.91;472.66;0.00;0.00;0.62;;;;;8.60;1.00;;;;;;2263853;61;1290;-86
2022/03/22 05:39:27;124033.00;0.41;215.04;0.00;0.00;0.62;;;;;8.90;1.00;;;;;;2263893;61;1085;-85
2022/03/22 05:41:56;401493.00;1.34;692.37;0.00;0.00;0.62;;;;;9.30;1.00;;;;;;2263791;61;1152;-85
2022/03/22 05:44:25;89071.00;0.30;154.70;0.00;0.00;0.62;;;;;9.00;1.00;;;;;;2263970;61;2007;-85
2022/03/22 05:46:52;269829.00;0.90;466.05;7782.00;0.03;14.11;;;;;8.90;1.00;;;;;;2263937;61;1409;-86
2022/03/22 05:49:19;266266.00;0.89;459.92;0.00;0.00;0.62;;;;;9.70;1.00;;;;;;2263830;61;1276;-85
2022/03/22 05:51:46;385538.00;1.29;664.94;34249.00;0.11;59.94;;;;;9.90;1.00;;;;;;2263923;61;1078;-86
2022/03/22 05:54:13;282920.00;0.94;488.56;37068.00;0.12;64.82;;;;;9.80;1.00;;;;;;2263788;61;1715;-85
2022/03/22 05:56:40;353478.00;1.18;609.84;17428.00;0.06;30.82;;;;;9.70;1.00;;;;;;2263805;61;1281;-88
2022/03/22 05:59:07;441853.00;1.47;761.77;26967.00;0.09;47.33;;;;;10.30;1.00;;;;;;2263927;61;1095;-87
2022/03/22 06:01:35;192910.00;0.64;333.72;0.00;0.00;0.62;;;;;11.10;1.00;;;;;;2264642;61;1088;-87
2022/03/22 06:04:02;271341.00;0.90;468.65;0.00;0.00;0.62;;;;;11.80;1.00;;;;;;2264489;61;1916;-90
2022/03/22 06:06:31;145051.00;0.48;251.28;0.00;0.00;0.62;;;;;12.30;1.00;;;;;;2264297;61;1331;-85
2022/03/22 06:08:58;409485.00;1.36;706.11;0.00;0.00;0.62;;;;;12.30;1.00;;;;;;2264569;61;923;-86
2022/03/22 06:11:25;533922.00;1.78;920.25;0.00;0.00;0.62;;;;;11.90;1.00;;;;;;2264485;61;1167;-87
2022/03/22 06:13:52;358475.00;1.19;618.43;39204.00;0.13;68.51;;;;;12.00;1.00;;;;;;2264433;61;1111;-88
2022/03/22 06:16:19;84138.00;0.28;146.18;0.00;0.00;0.62;;;;;11.80;1.00;;;;;;2264421;61;1484;-87
2022/03/22 06:18:47;145986.00;0.49;252.89;0.00;0.00;0.62;;;;;12.30;1.00;;;;;;2264419;61;1143;-86
2022/03/22 06:21:14;330704.00;1.10;570.70;0.00;0.00;0.62;;;;;12.40;1.00;;;;;;2264427;61;1152;-87
2022/03/22 06:23:41;114706.00;0.38;198.95;0.00;0.00;0.62;;;;;12.20;1.00;;;;;;2264143;61;2016;-86
2022/03/22 06:26:08;144520.00;0.48;250.36;0.00;0.00;0.62;;;;;12.60;1.00;;;;;;2264186;61;1490;-88
2022/03/22 06:28:35;429195.00;1.43;740.00;57224.00;0.19;99.68;;;;;12.80;1.00;;;;;;2264443;61;1227;-87
2022/03/22 06:31:02;247457.00;0.82;427.58;43342.00;0.14;75.67;;;;;12.40;1.00;;;;;;2264331;61;1072;-86
2022/03/22 06:33:29;64342.00;0.21;111.98;0.00;0.00;0.62;;;;;12.40;1.00;;;;;;2264462;61;1055;-85
2022/03/22 06:35:57;120571.00;0.40;209.07;0.00;0.00;0.62;;;;;13.00;1.00;;;;;;2264353;61;1249;-85
2022/03/22 06:38:24;354277.00;1.18;611.21;0.00;0.00;0.62;;;;;13.00;1.00;;;;;;2264326;61;1156;-87
2022/03/22 06:40:52;283630.00;0.95;489.78;13049.00;0.04;23.23;;;;;13.30;1.00;;;;;;2264443;61;1121;-88
2022/03/22 06:43:21;68691.00;0.23;119.50;0.00;0.00;0.62;;;;;13.70;1.00;;;;;;2264315;61;2012;-88
2022/03/22 06:45:49;275056.00;0.92;475.04;57363.00;0.19;99.92;;;;;13.50;1.00;;;;;;2264239;61;1472;-85
2022/03/22 06:48:16;82772.00;0.28;143.83;0.00;0.00;0.62;;;;;13.20;1.00;;;;;;2264180;61;995;-87
2022/03/22 06:50:45;278496.00;0.93;480.95;31761.00;0.11;55.63;;;;;13.60;1.00;;;;;;2264439;61;1101;-86
2022/03/22 06:53:13;140453.00;0.47;243.35;0.00;0.00;0.62;;;;;14.20;1.00;;;;;;2264374;61;1212;-86
2022/03/22 06:55:41;56490.00;0.19;98.41;0.00;0.00;0.62;;;;;14.70;1.00;;;;;;2264307;61;1555;-87
2022/03/22 06:58:11;53169.00;0.18;92.67;0.00;0.00;0.62;;;;;14.50;1.00;;;;;;2264389;61;1120;-87
2022/03/22 07:00:38;260913.00;0.87;450.72;0.00;0.00;0.62;;;;;14.60;1.00;;;;;;2264468;61;1335;-84
2022/03/22 07:03:06;367354.00;1.22;633.69;18542.00;0.06;32.75;;;;;14.90;1.00;;;;;;2264232;61;2144;-86
2022/03/22 07:05:34;47120.00;0.16;82.21;0.00;0.00;0.62;;;;;14.90;1.00;;;;;;2264298;61;1600;-85
2022/03/22 07:08:01;382001.00;1.27;658.86;0.00;0.00;0.62;;;;;14.80;1.00;;;;;;2264305;61;1087;-86
2022/03/22 07:10:31;115954.00;0.39;201.10;0.00;0.00;0.62;;;;;14.40;1.00;;;;;;2264333;61;1127;-87
2022/03/22 07:13:01;120208264.00;400.69;70365432.00;0.00;0.00;0.62;;;;;14.40;1.00;;;;;;2264423;61;1120;-88
2022/03/22 07:15:30;178110.00;0.59;308.23;0.00;0.00;0.62;;;;;14.00;1.00;;;;;;2264379;61;1383;-87
2022/03/22 07:17:58;92858.00;0.31;161.24;0.00;0.00;0.62;;;;;13.60;1.00;;;;;;2264281;61;1147;-86
2022/03/22 07:20:26;168852.00;0.56;292.29;0.00;0.00;0.62;;;;;13.50;1.00;;;;;;2264341;61;975;-85
2022/03/22 07:22:53;145293.00;0.48;251.69;0.00;0.00;0.62;;;;;13.90;1.00;;;;;;2264195;61;1662;-86
2022/03/22 07:25:20;158842.00;0.53;275.04;0.00;0.00;0.62;;;;;14.40;1.00;;;;;;2264211;61;1616;-86
2022/03/22 07:27:49;539535.00;1.80;929.92;15595.00;0.05;27.64;;;;;14.90;1.00;;;;;;2264238;61;1783;-87
2022/03/22 07:30:17;1305963.00;4.35;2283.02;87157.00;0.29;151.40;;;;;15.30;1.00;;;;;;2264395;61;1148;-86
2022/03/22 07:32:46;1385674.00;4.62;2429.78;37900.00;0.13;66.25;;;;;15.70;1.00;;;;;;2264321;61;1168;-86
2022/03/22 07:35:17;1237890.00;4.13;2158.88;92257.00;0.31;160.20;;;;;15.90;1.00;;;;;;2264146;61;1369;-84
2022/03/22 07:37:44;1319910.00;4.40;2308.59;139182.00;0.46;241.16;;;;;16.90;1.00;;;;;;2264230;61;1680;-85
2022/03/22 07:40:12;841190.00;2.80;1453.06;82177.00;0.27;142.80;;;;;17.10;1.00;;;;;;2264165;61;1045;-87
2022/03/22 07:42:41;981187.00;3.27;1699.18;123614.00;0.41;214.32;;;;;17.30;1.00;;;;;;2264298;61;1045;-86
2022/03/22 07:45:11;950509.00;3.17;1645.01;86572.00;0.29;150.39;;;;;17.10;1.00;;;;;;2264077;61;2009;-87
2022/03/22 07:47:38;865244.00;2.88;1495.16;33101.00;0.11;57.95;;;;;17.10;1.00;;;;;;2263988;61;1706;-86
2022/03/22 07:53:01;152885.00;0.51;264.78;0.00;0.00;0.62;;;;;17.30;1.00;;;;;;2264197;61;1118;-87
2022/03/22 07:55:29;608590.00;2.03;1049.05;149777.00;0.50;259.42;;;;;17.60;1.00;;;;;;2264056;61;1598;-85
2022/03/22 07:57:57;519861.00;1.73;896.03;21572.00;0.07;37.99;;;;;18.10;1.00;;;;;;2264271;61;1122;-87
2022/03/22 08:00:26;468653.00;1.56;807.87;14449.00;0.05;25.66;;;;;18.00;1.00;;;;;;2264216;61;1546;-87
2022/03/22 08:02:55;241047.00;0.80;416.55;0.00;0.00;0.62;;;;;18.00;1.00;;;;;;2264051;61;2273;-85
2022/03/22 08:05:23;271558.00;0.91;469.02;40484.00;0.13;70.73;;;;;17.70;1.00;;;;;;2264182;61;2009;-85
2022/03/22 08:07:50;915659.00;3.05;1583.64;44791.00;0.15;78.18;;;;;17.80;1.00;;;;;;2264261;61;1050;-87
2022/03/22 08:10:17;746717.00;2.49;1288.35;98601.00;0.33;171.16;;;;;18.00;1.00;;;;;;2264264;61;1492;-87
2022/03/22 08:12:44;1108691.00;3.70;1925.97;136462.00;0.45;236.47;;;;;17.80;1.00;;;;;;2264230;61;1024;-86
2022/03/22 08:15:13;1202746.00;4.01;2095.19;162121.00;0.54;280.69;;;;;18.20;1.00;;;;;;2264078;61;1279;-86
2022/03/22 08:17:42;1038791.00;3.46;1801.30;119508.00;0.40;207.23;;;;;17.90;1.00;;;;;;2264167;61;1108;-87
2022/03/22 08:20:11;1247406.00;4.16;2176.17;87503.00;0.29;152.00;;;;;18.10;1.00;;;;;;2264208;61;1041;-86
2022/03/22 08:22:50;1138513.00;3.80;1979.44;253910.00;0.85;438.68;;;;;18.30;1.00;;;;;;2264049;61;1148;-85
2022/03/22 08:25:19;759774.00;2.53;1311.06;94105.00;0.31;163.40;;;;;18.20;1.00;;;;;;2264119;61;1928;-87
2022/03/22 08:27:46;810578.00;2.70;1399.58;74700.00;0.25;129.88;;;;;18.20;1.00;;;;;;2264206;61;1160;-86
2022/03/22 08:30:13;669094.00;2.23;1153.68;80676.00;0.27;140.20;;;;;18.40;1.00;;;;;;2264074;61;1125;-87
2022/03/22 08:32:44;899183.00;3.00;1554.69;91084.00;0.30;158.18;;;;;17.90;1.00;;;;;;2264168;61;1049;-85
2022/03/22 08:35:11;1072312.00;3.57;1860.98;86963.00;0.29;151.06;;;;;18.20;1.00;;;;;;2264018;61;1310;-86
2022/03/22 08:37:38;1114524.00;3.72;1936.42;71262.00;0.24;123.94;;;;;17.50;1.00;;;;;;2264167;61;1038;-86
2022/03/22 08:40:06;1023637.00;3.41;1774.38;54126.00;0.18;94.32;;;;;17.00;1.00;;;;;;2264012;61;1125;-87
2022/03/22 08:42:33;1521696.00;5.07;2684.01;187438.00;0.62;324.30;;;;;17.60;1.00;;;;;;2264078;61;1651;-88
2022/03/22 08:45:00;1222484.00;4.07;2130.92;102478.00;0.34;177.85;;;;;17.90;1.00;;;;;;2263888;61;1994;-87
2022/03/22 08:47:29;1089087.00;3.63;1890.92;62133.00;0.21;108.16;;;;;17.90;1.00;;;;;;2264039;61;1719;-87
2022/03/22 08:49:58;1232410.00;4.11;2148.93;103693.00;0.35;179.95;;;;;18.00;1.00;;;;;;2264094;61;1464;-87
2022/03/22 08:52:25;1210298.00;4.03;2108.85;119345.00;0.40;206.95;;;;;17.80;1.00;;;;;;2263928;61;1049;-86
2022/03/22 08:54:52;991384.00;3.30;1717.22;86233.00;0.29;149.80;;;;;17.30;1.00;;;;;;2264121;61;1362;-87
2022/03/22 08:57:19;1564642.00;5.22;2765.36;162883.00;0.54;282.01;;;;;17.30;1.00;;;;;;2263955;61;1767;-86
2022/03/22 08:59:47;1335638.00;4.45;2337.48;82581.00;0.28;143.50;;;;;17.00;1.00;;;;;;2264116;61;1102;-87
2022/03/22 09:02:14;1254292.00;4.18;2188.69;154202.00;0.51;267.05;;;;;17.00;1.00;;;;;;2264017;61;1544;-87
2022/03/22 09:07:27;814238.00;2.71;1405.97;53456.00;0.18;93.16;;;;;16.90;1.00;;;;;;2264086;61;705;-85
2022/03/22 09:09:54;1166922.00;3.89;2030.53;224053.00;0.75;387.32;;;;;16.90;1.00;;;;;;2263971;61;1123;-88
2022/03/22 09:12:24;1309252.00;4.36;2289.05;177377.00;0.59;306.97;;;;;16.90;1.00;;;;;;2264080;61;1012;-87
2022/03/22 09:14:53;1519691.00;5.07;2680.23;168829.00;0.56;292.25;;;;;16.90;1.00;;;;;;2263860;61;1298;-86
2022/03/22 09:17:20;738742.00;2.46;1274.49;111231.00;0.37;192.95;;;;;16.90;1.00;;;;;;2264066;61;1023;-86
2022/03/22 09:19:47;497410.00;1.66;857.36;93089.00;0.31;161.64;;;;;17.00;1.00;;;;;;2263844;61;1323;-86
2022/03/22 09:22:15;394193.00;1.31;679.82;91095.00;0.30;158.20;;;;;17.00;1.00;;;;;;2263993;61;1168;-85
2022/03/22 09:24:43;561189.00;1.87;967.25;98199.00;0.33;170.46;;;;;17.30;1.00;;;;;;2263816;61;2016;-87
2022/03/22 09:27:11;535007.00;1.78;922.12;102216.00;0.34;177.40;;;;;16.80;1.00;;;;;;2264028;61;1257;-86
2022/03/22 09:29:38;376140.00;1.25;648.79;95457.00;0.32;165.73;;;;;16.20;1.00;;;;;;2263562;61;1012;-86
2022/03/22 09:32:05;396974.00;1.32;684.60;102885.00;0.34;178.55;;;;;16.30;1.00;;;;;;2263842;61;993;-88
2022/03/22 09:34:33;486231.00;1.62;838.12;88655.00;0.30;153.99;;;;;16.10;1.00;;;;;;2264066;61;1019;-87
2022/03/22 09:37:00;505454.00;1.68;871.21;98145.00;0.33;170.37;;;;;16.00;1.00;;;;;;2264493;61;1439;-87
2022/03/22 09:39:27;469974.00;1.57;810.14;56352.00;0.19;98.17;;;;;16.00;1.00;;;;;;2264503;61;1619;-87
2022/03/22 09:41:59;79453.00;0.26;138.09;0.00;0.00;0.62;;;;;16.10;1.00;;;;;;2264447;61;1183;-88
2022/03/22 09:44:29;334401.00;1.11;577.05;73952.00;0.25;128.59;;;;;16.20;1.00;;;;;;2264700;61;1912;-87
2022/03/22 09:46:57;483736.00;1.61;833.83;82841.00;0.28;143.94;;;;;16.30;1.00;;;;;;2264439;61;1434;-88
2022/03/22 09:49:24;324220.00;1.08;559.55;0.00;0.00;0.62;;;;;16.50;1.00;;;;;;2264369;61;1089;-87
2022/03/22 09:51:53;315072.00;1.05;543.83;0.00;0.00;0.62;;;;;16.60;1.00;;;;;;2264475;61;1010;-88
2022/03/22 09:54:23;153908.00;0.51;266.54;0.00;0.00;0.62;;;;;16.60;1.00;;;;;;2264588;61;1127;-87
2022/03/22 09:56:52;368989.00;1.23;636.50;0.00;0.00;0.62;;;;;16.60;1.00;;;;;;2264573;61;1423;-87
2022/03/22 09:59:20;210086.00;0.70;363.28;16932.00;0.06;29.96;;;;;16.70;1.00;;;;;;2264511;61;1700;-87
2022/03/22 10:01:48;190693.00;0.64;329.90;0.00;0.00;0.62;;;;;16.70;1.00;;;;;;2264475;61;1005;-85
2022/03/22 10:04:16;314105.00;1.05;542.17;0.00;0.00;0.62;;;;;16.70;1.00;;;;;;2264292;61;2081;-85
2022/03/22 10:06:54;542283.00;1.81;934.66;77214.00;0.26;134.22;;;;;17.00;1.00;;;;;;2264327;61;1313;-85
2022/03/22 10:09:31;143502.00;0.48;248.61;0.00;0.00;0.62;;;;;17.50;1.00;;;;;;2264429;61;1184;-87